Time;durP1;ratioP1;P1;durP2;ratioP2;P2;SDS_P1;SDS_P2;PMS_P1;PMS_P2;Temp;Humidity;BMP_temperature;BMP_pressure;BME280_temperature;BME280_humidity;BME280_pressure;Samples;Min_cycle;Max_cycle;Signal;HPM_P1;HPM_P2
2021/12/11 00:02:45;;;;;;;11.82;4.13;;;;;;;;;;20915566;28;20098;-60
2021/12/11 00:12:51;;;;;;;12.32;3.78;;;;;;;;;;20915647;28;20454;-57
2021/12/11 00:22:53;;;;;;;17.15;4.20;;;;;;;;;;20914323;28;20110;-57
2021/12/11 00:33:00;;;;;;;12.55;3.47;;;;;;;;;;20914183;28;20045;-61
2021/12/11 00:43:04;;;;;;;10.70;2.95;;;;;;;;;;20913775;28;20490;-61
2021/12/11 00:53:09;;;;;;;11.93;2.60;;;;;;;;;;20911671;28;20049;-62
2021/12/11 01:03:12;;;;;;;10.30;2.93;;;;;;;;;;20911264;28;20045;-61
2021/12/11 01:13:18;;;;;;;10.32;2.92;;;;;;;;;;20912425;28;20071;-61
2021/12/11 01:33:36;;;;;;;9.93;3.47;;;;;;;;;;20911126;28;20056;-61
2021/12/11 01:43:41;;;;;;;7.72;2.47;;;;;;;;;;20910987;28;20053;-62
2021/12/11 01:53:46;;;;;;;7.80;3.17;;;;;;;;;;20910585;28;20081;-62
2021/12/11 02:03:49;;;;;;;7.07;2.33;;;;;;;;;;20909139;28;20056;-60
2021/12/11 02:13:58;;;;;;;13.68;2.85;;;;;;;;;;20920534;28;20462;-57
2021/12/11 02:24:03;;;;;;;5.18;1.83;;;;;;;;;;20922881;28;20057;-57
2021/12/11 02:34:12;;;;;;;10.70;2.95;;;;;;;;;;20920486;28;20052;-55
2021/12/11 02:44:26;;;;;;;7.68;2.20;;;;;;;;;;20921499;28;20053;-57
2021/12/11 02:54:39;;;;;;;10.15;2.03;;;;;;;;;;20920849;28;20049;-55
2021/12/11 03:04:52;;;;;;;5.93;1.90;;;;;;;;;;20919435;28;20052;-61
2021/12/11 03:15:01;;;;;;;7.63;2.75;;;;;;;;;;20919179;28;20044;-55
2021/12/11 03:25:11;;;;;;;9.95;2.13;;;;;;;;;;20917986;28;20048;-60
2021/12/11 03:35:17;;;;;;;8.35;2.05;;;;;;;;;;20916976;28;20095;-57
2021/12/11 03:45:25;;;;;;;9.70;2.13;;;;;;;;;;20916990;28;20083;-61
2021/12/11 03:55:35;;;;;;;5.25;1.83;;;;;;;;;;20915922;28;20048;-61
2021/12/11 04:05:38;;;;;;;8.07;3.20;;;;;;;;;;20915531;28;20076;-56
2021/12/11 04:15:53;;;;;;;8.93;1.75;;;;;;;;;;20915017;28;20079;-55
2021/12/11 04:26:07;;;;;;;8.68;2.30;;;;;;;;;;20913347;28;20084;-54
2021/12/11 04:36:22;;;;;;;8.98;2.20;;;;;;;;;;20912327;28;20476;-55
2021/12/11 04:46:42;;;;;;;7.20;1.80;;;;;;;;;;20912709;28;20572;-55
2021/12/11 05:07:26;;;;;;;6.32;2.22;;;;;;;;;;20911780;28;20562;-61
2021/12/11 05:17:32;;;;;;;6.82;2.10;;;;;;;;;;20911808;28;20376;-61
2021/12/11 05:27:38;;;;;;;9.68;3.28;;;;;;;;;;20911202;28;20049;-58
2021/12/11 05:37:42;;;;;;;8.50;2.30;;;;;;;;;;20910836;28;20041;-57
2021/12/11 05:47:45;;;;;;;11.18;2.83;;;;;;;;;;20922008;28;20481;-56
2021/12/11 05:57:51;;;;;;;;;;;;;;;;;;20925938;28;20045;-56
2021/12/11 06:07:56;;;;;;;8.82;3.30;;;;;;;;;;20924557;28;19921;-56
2021/12/11 06:18:02;;;;;;;9.27;3.40;;;;;;;;;;20924596;28;20048;-56
2021/12/11 06:28:07;;;;;;;10.38;3.05;;;;;;;;;;20923343;28;20060;-56
2021/12/11 06:38:13;;;;;;;13.18;7.15;;;;;;;;;;20922622;28;20469;-55
2021/12/11 06:48:19;;;;;;;6.65;3.03;;;;;;;;;;20921462;28;20057;-60
2021/12/11 06:58:26;;;;;;;9.65;3.83;;;;;;;;;;20925190;28;20051;-56
2021/12/11 07:08:31;;;;;;;13.52;3.80;;;;;;;;;;20926618;28;20495;-60
2021/12/11 07:18:35;;;;;;;10.73;4.25;;;;;;;;;;20919065;28;20049;-61
2021/12/11 07:28:37;;;;;;;13.32;4.05;;;;;;;;;;20919333;28;20059;-58
2021/12/11 07:38:40;;;;;;;9.77;4.95;;;;;;;;;;20917887;28;20087;-61
2021/12/11 07:48:45;;;;;;;12.27;5.88;;;;;;;;;;20916767;28;20130;-60
2021/12/11 07:58:51;;;;;;;11.80;4.15;;;;;;;;;;20916391;28;20052;-57
2021/12/11 08:08:56;;;;;;;13.43;4.07;;;;;;;;;;20915311;28;20539;-60
2021/12/11 08:19:00;;;;;;;16.92;4.90;;;;;;;;;;20914211;28;20049;-61
2021/12/11 08:29:04;;;;;;;;;;;;;;;;;;20913712;28;20498;-62
2021/12/11 08:39:10;;;;;;;11.98;4.85;;;;;;;;;;20913401;28;19927;-60
2021/12/11 08:49:18;;;;;;;13.82;7.00;;;;;;;;;;20911819;28;20053;-60
2021/12/11 08:59:27;;;;;;;17.58;6.35;;;;;;;;;;20912875;28;20076;-58
2021/12/11 09:09:45;;;;;;;14.98;6.38;;;;;;;;;;20912688;28;20179;-58
2021/12/11 09:20:00;;;;;;;12.93;6.68;;;;;;;;;;20919391;28;20628;-54
2021/12/11 09:30:13;;;;;;;14.63;6.57;;;;;;;;;;20927175;28;20071;-61
2021/12/11 09:40:36;;;;;;;13.63;7.10;;;;;;;;;;20926786;28;20060;-57
2021/12/11 09:50:50;;;;;;;11.50;5.90;;;;;;;;;;20925041;28;20107;-56
2021/12/11 10:01:09;;;;;;;10.40;3.43;;;;;;;;;;20925105;28;20136;-55
2021/12/11 10:11:13;;;;;;;8.07;3.30;;;;;;;;;;20923607;28;20625;-58
2021/12/11 10:21:19;;;;;;;12.00;3.85;;;;;;;;;;20922477;28;20099;-58
2021/12/11 10:31:24;;;;;;;7.65;2.75;;;;;;;;;;20921099;28;20057;-57
2021/12/11 10:41:31;;;;;;;10.77;4.72;;;;;;;;;;20921595;28;20049;-60
2021/12/11 10:51:40;;;;;;;34.80;16.50;;;;;;;;;;20920445;28;20053;-57
2021/12/11 11:01:45;;;;;;;9.00;3.90;;;;;;;;;;20919919;28;20055;-58
2021/12/11 11:11:48;;;;;;;;;;;;;;;;;;20921281;28;20190;-60
2021/12/11 11:21:53;;;;;;;16.15;4.40;;;;;;;;;;20919065;28;19959;-58
2021/12/11 11:32:00;;;;;;;16.33;6.00;;;;;;;;;;20919249;28;20403;-56
2021/12/11 11:42:05;;;;;;;16.08;3.80;;;;;;;;;;20917109;28;20071;-59
2021/12/11 11:52:12;;;;;;;7.53;3.87;;;;;;;;;;20916336;28;20060;-58
2021/12/11 12:02:17;;;;;;;14.40;4.90;;;;;;;;;;20916078;28;20087;-58
2021/12/11 12:12:22;;;;;;;10.40;4.15;;;;;;;;;;20914597;28;20136;-61
2021/12/11 12:22:26;;;;;;;6.90;2.92;;;;;;;;;;20903388;28;20146;-61
2021/12/11 12:32:32;;;;;;;8.50;2.88;;;;;;;;;;20913750;28;20056;-57
2021/12/11 12:42:40;;;;;;;4.60;1.75;;;;;;;;;;20913696;28;20139;-56
2021/12/11 12:52:46;;;;;;;4.07;1.30;;;;;;;;;;20911644;28;20053;-59
2021/12/11 13:02:51;;;;;;;2.88;1.30;;;;;;;;;;20912347;28;20061;-58
2021/12/11 13:12:56;;;;;;;4.55;2.25;;;;;;;;;;20911310;28;20075;-56
2021/12/11 13:23:00;;;;;;;9.35;4.25;;;;;;;;;;20911159;28;20057;-56
2021/12/11 13:33:06;;;;;;;3.13;1.70;;;;;;;;;;20911690;28;20112;-60
2021/12/11 13:43:10;;;;;;;9.75;3.00;;;;;;;;;;20910958;28;20049;-60
2021/12/11 13:53:13;;;;;;;2.70;1.50;;;;;;;;;;20909999;28;20087;-57
2021/12/11 14:03:18;;;;;;;3.05;1.60;;;;;;;;;;20913127;28;20137;-57
2021/12/11 14:13:23;;;;;;;5.20;2.15;;;;;;;;;;20924371;28;20132;-54
2021/12/11 14:23:29;;;;;;;6.18;2.15;;;;;;;;;;20922272;28;20053;-56
2021/12/11 14:33:32;;;;;;;3.75;1.55;;;;;;;;;;20923441;28;20049;-56
2021/12/11 14:43:36;;;;;;;6.50;2.40;;;;;;;;;;20922839;28;20088;-56
2021/12/11 14:53:39;;;;;;;2.03;1.13;;;;;;;;;;20921933;28;20529;-56
2021/12/11 15:03:42;;;;;;;3.88;1.50;;;;;;;;;;20921689;28;20045;-58
2021/12/11 15:13:44;;;;;;;2.65;1.40;;;;;;;;;;20920203;28;20063;-57
2021/12/11 15:23:54;;;;;;;3.60;1.38;;;;;;;;;;20919759;28;20140;-57
2021/12/11 15:33:58;;;;;;;4.28;1.55;;;;;;;;;;20918482;28;20045;-55
2021/12/11 15:44:02;;;;;;;2.58;0.98;;;;;;;;;;20916900;28;20056;-56
2021/12/11 15:54:07;;;;;;;3.17;1.43;;;;;;;;;;20916065;28;20049;-55
2021/12/11 16:04:10;;;;;;;3.67;1.63;;;;;;;;;;20916391;28;20052;-56
2021/12/11 16:14:15;;;;;;;3.55;1.20;;;;;;;;;;20915730;28;20061;-57
2021/12/11 16:24:19;;;;;;;2.38;1.40;;;;;;;;;;20914264;28;20053;-59
2021/12/11 16:34:23;;;;;;;3.80;2.08;;;;;;;;;;20912433;28;20055;-59
2021/12/11 16:44:29;;;;;;;4.80;2.33;;;;;;;;;;20913024;28;20060;-60
2021/12/11 16:54:33;;;;;;;6.78;4.65;;;;;;;;;;20912412;28;20136;-60
2021/12/11 17:04:36;;;;;;;7.87;3.10;;;;;;;;;;20912463;28;20556;-59
2021/12/11 17:14:38;;;;;;;3.53;1.60;;;;;;;;;;20911346;28;20099;-60
2021/12/11 17:24:45;;;;;;;4.07;1.58;;;;;;;;;;20910875;28;20041;-56
2021/12/11 17:34:49;;;;;;;8.02;6.25;;;;;;;;;;20911659;28;20136;-54
2021/12/11 17:44:55;;;;;;;3.17;1.98;;;;;;;;;;20924020;28;20045;-54
2021/12/11 17:54:59;;;;;;;3.00;1.83;;;;;;;;;;20925749;28;20059;-55
2021/12/11 18:05:08;;;;;;;2.60;1.70;;;;;;;;;;20925708;28;20471;-55
2021/12/11 18:15:30;;;;;;;4.47;2.75;;;;;;;;;;20924501;28;20504;-56
2021/12/11 18:25:33;;;;;;;9.20;4.65;;;;;;;;;;20923224;28;20101;-55
2021/12/11 18:35:39;;;;;;;5.50;4.50;;;;;;;;;;20923680;28;20090;-56
2021/12/11 18:45:44;;;;;;;9.35;4.03;;;;;;;;;;20920091;28;20053;-56
2021/12/11 18:55:46;;;;;;;;;;;;;;;;;;20920219;28;20087;-62
2021/12/11 19:05:51;;;;;;;6.28;3.80;;;;;;;;;;20921045;28;19966;-55
2021/12/11 19:15:56;;;;;;;4.63;2.90;;;;;;;;;;20920236;28;20049;-56
2021/12/11 19:26:00;;;;;;;5.18;3.17;;;;;;;;;;20919120;28;20045;-56
2021/12/11 19:36:07;;;;;;;7.20;3.70;;;;;;;;;;20918720;28;20045;-55
2021/12/11 19:46:09;;;;;;;10.18;6.32;;;;;;;;;;20916501;28;20063;-55
2021/12/11 19:56:12;;;;;;;7.90;4.57;;;;;;;;;;20916679;28;20128;-58
2021/12/11 20:06:16;;;;;;;11.15;6.75;;;;;;;;;;20916737;28;20056;-55
2021/12/11 20:16:21;;;;;;;11.80;5.65;;;;;;;;;;20915533;28;20049;-55
2021/12/11 20:26:25;;;;;;;12.63;7.30;;;;;;;;;;20914444;28;20147;-56
2021/12/11 20:36:28;;;;;;;15.30;6.37;;;;;;;;;;20914358;28;20293;-61
2021/12/11 20:46:30;;;;;;;9.57;6.10;;;;;;;;;;20912773;28;20063;-60
2021/12/11 20:56:33;;;;;;;12.65;6.82;;;;;;;;;;20912508;28;20045;-59
2021/12/11 21:06:49;;;;;;;11.25;6.88;;;;;;;;;;20913447;28;20088;-56
2021/12/11 21:17:02;;;;;;;18.00;10.57;;;;;;;;;;20921734;28;20480;-56
2021/12/11 21:27:08;;;;;;;18.52;10.98;;;;;;;;;;20928049;28;20056;-55
2021/12/11 21:37:13;;;;;;;17.88;10.27;;;;;;;;;;20928263;28;20501;-57
2021/12/11 21:47:16;;;;;;;16.98;10.50;;;;;;;;;;20926995;28;20410;-56
2021/12/11 21:57:23;;;;;;;13.55;9.07;;;;;;;;;;20926727;28;20128;-61
2021/12/11 22:07:29;;;;;;;13.75;8.98;;;;;;;;;;20926321;28;20049;-56
2021/12/11 22:17:32;;;;;;;14.75;9.00;;;;;;;;;;20925128;28;20049;-56
2021/12/11 22:27:38;;;;;;;19.98;10.20;;;;;;;;;;20922885;28;20059;-63
2021/12/11 22:37:42;;;;;;;17.90;10.18;;;;;;;;;;20923574;28;20202;-61
2021/12/11 22:47:46;;;;;;;14.32;10.02;;;;;;;;;;20922045;28;20060;-58
2021/12/11 22:57:49;;;;;;;12.40;7.25;;;;;;;;;;20921749;28;20095;-59
2021/12/11 23:07:54;;;;;;;7.53;4.75;;;;;;;;;;20920855;28;20060;-54
2021/12/11 23:18:07;;;;;;;7.78;5.38;;;;;;;;;;20920472;28;20053;-55
2021/12/11 23:28:12;;;;;;;11.20;6.90;;;;;;;;;;20919742;28;20071;-56
2021/12/11 23:38:35;;;;;;;10.27;5.73;;;;;;;;;;20918320;28;20048;-55
2021/12/11 23:48:41;;;;;;;10.40;5.70;;;;;;;;;;20918245;28;20083;-55
2021/12/11 23:58:47;;;;;;;11.75;7.05;;;;;;;;;;20917357;28;20083;-55
